sensor_id;sensor_type;location;lat;lon;timestamp;temperature;humidity
4530;DHT22;2277;51.626;7.516;2022-08-02T00:01:28;19.70;99.90
4530;DHT22;2277;51.626;7.516;2022-08-02T00:03:53;19.70;99.90
4530;DHT22;2277;51.626;7.516;2022-08-02T00:06:19;19.70;99.90
4530;DHT22;2277;51.626;7.516;2022-08-02T00:08:45;19.60;99.90
4530;DHT22;2277;51.626;7.516;2022-08-02T00:11:10;19.60;99.90
4530;DHT22;2277;51.626;7.516;2022-08-02T00:13:36;19.60;99.90
4530;DHT22;2277;51.626;7.516;2022-08-02T00:16:02;19.50;99.90
4530;DHT22;2277;51.626;7.516;2022-08-02T00:18:28;19.50;99.90
4530;DHT22;2277;51.626;7.516;2022-08-02T00:20:53;19.40;99.90
4530;DHT22;2277;51.626;7.516;2022-08-02T00:23:19;19.40;99.90
4530;DHT22;2277;51.626;7.516;2022-08-02T00:25:45;19.40;99.90
4530;DHT22;2277;51.626;7.516;2022-08-02T00:28:10;19.30;99.90
4530;DHT22;2277;51.626;7.516;2022-08-02T00:30:36;19.30;99.90
4530;DHT22;2277;51.626;7.516;2022-08-02T00:33:02;19.30;99.90
4530;DHT22;2277;51.626;7.516;2022-08-02T00:35:29;19.30;99.90
4530;DHT22;2277;51.626;7.516;2022-08-02T00:37:55;19.30;99.90
4530;DHT22;2277;51.626;7.516;2022-08-02T00:40:21;19.30;99.90
4530;DHT22;2277;51.626;7.516;2022-08-02T00:43:03;19.20;99.90
4530;DHT22;2277;51.626;7.516;2022-08-02T00:45:31;19.10;99.90
4530;DHT22;2277;51.626;7.516;2022-08-02T00:47:57;19.10;99.90
4530;DHT22;2277;51.626;7.516;2022-08-02T00:50:23;19.10;99.90
4530;DHT22;2277;51.626;7.516;2022-08-02T00:52:48;19.10;99.90
4530;DHT22;2277;51.626;7.516;2022-08-02T00:55:14;19.10;99.90
4530;DHT22;2277;51.626;7.516;2022-08-02T00:57:39;19.00;99.90
4530;DHT22;2277;51.626;7.516;2022-08-02T01:00:06;19.00;99.90
4530;DHT22;2277;51.626;7.516;2022-08-02T01:02:32;19.00;99.90
4530;DHT22;2277;51.626;7.516;2022-08-02T01:04:57;18.90;99.90
4530;DHT22;2277;51.626;7.516;2022-08-02T01:07:23;18.90;99.90
4530;DHT22;2277;51.626;7.516;2022-08-02T01:09:49;18.90;99.90
4530;DHT22;2277;51.626;7.516;2022-08-02T01:12:14;18.80;99.90
4530;DHT22;2277;51.626;7.516;2022-08-02T01:14:41;18.80;99.90
4530;DHT22;2277;51.626;7.516;2022-08-02T01:25:14;18.70;99.90
4530;DHT22;2277;51.626;7.516;2022-08-02T01:30:43;18.70;99.90
4530;DHT22;2277;51.626;7.516;2022-08-02T01:33:15;18.70;99.90
4530;DHT22;2277;51.626;7.516;2022-08-02T01:35:45;18.70;99.90
4530;DHT22;2277;51.626;7.516;2022-08-02T01:38:28;18.70;99.90
4530;DHT22;2277;51.626;7.516;2022-08-02T01:40:56;18.60;99.90
4530;DHT22;2277;51.626;7.516;2022-08-02T01:43:23;18.60;99.90
4530;DHT22;2277;51.626;7.516;2022-08-02T01:45:52;18.60;99.90
4530;DHT22;2277;51.626;7.516;2022-08-02T01:48:18;18.60;99.90
4530;DHT22;2277;51.626;7.516;2022-08-02T01:50:46;18.50;99.90
4530;DHT22;2277;51.626;7.516;2022-08-02T01:53:13;18.50;99.90
4530;DHT22;2277;51.626;7.516;2022-08-02T01:55:43;18.50;99.90
4530;DHT22;2277;51.626;7.516;2022-08-02T01:58:10;18.50;99.90
4530;DHT22;2277;51.626;7.516;2022-08-02T02:00:41;18.50;99.90
4530;DHT22;2277;51.626;7.516;2022-08-02T02:03:11;18.50;99.90
4530;DHT22;2277;51.626;7.516;2022-08-02T02:05:38;18.40;99.90
4530;DHT22;2277;51.626;7.516;2022-08-02T02:08:05;18.40;99.90
4530;DHT22;2277;51.626;7.516;2022-08-02T02:10:32;18.50;99.90
4530;DHT22;2277;51.626;7.516;2022-08-02T02:13:07;18.50;99.90
4530;DHT22;2277;51.626;7.516;2022-08-02T02:15:34;18.40;99.90
4530;DHT22;2277;51.626;7.516;2022-08-02T02:18:03;18.40;99.90
4530;DHT22;2277;51.626;7.516;2022-08-02T02:20:29;18.40;99.90
4530;DHT22;2277;51.626;7.516;2022-08-02T02:22:55;18.40;99.90
4530;DHT22;2277;51.626;7.516;2022-08-02T02:25:21;18.30;99.90
4530;DHT22;2277;51.626;7.516;2022-08-02T02:27:55;18.30;99.90
4530;DHT22;2277;51.626;7.516;2022-08-02T02:30:25;18.30;99.90
4530;DHT22;2277;51.626;7.516;2022-08-02T02:32:54;18.30;99.90
4530;DHT22;2277;51.626;7.516;2022-08-02T02:35:22;18.30;99.90
4530;DHT22;2277;51.626;7.516;2022-08-02T02:37:49;18.30;99.90
4530;DHT22;2277;51.626;7.516;2022-08-02T02:40:16;18.30;99.90
4530;DHT22;2277;51.626;7.516;2022-08-02T02:42:43;18.20;99.90
4530;DHT22;2277;51.626;7.516;2022-08-02T02:45:09;18.20;99.90
4530;DHT22;2277;51.626;7.516;2022-08-02T02:47:36;18.20;99.90
4530;DHT22;2277;51.626;7.516;2022-08-02T02:50:02;18.20;99.90
4530;DHT22;2277;51.626;7.516;2022-08-02T02:52:28;18.10;99.90
4530;DHT22;2277;51.626;7.516;2022-08-02T02:54:54;18.10;99.90
4530;DHT22;2277;51.626;7.516;2022-08-02T02:57:21;18.10;99.90
4530;DHT22;2277;51.626;7.516;2022-08-02T02:59:48;18.10;99.90
4530;DHT22;2277;51.626;7.516;2022-08-02T03:02:13;18.10;99.90
4530;DHT22;2277;51.626;7.516;2022-08-02T03:04:40;18.00;99.90
4530;DHT22;2277;51.626;7.516;2022-08-02T03:07:08;18.00;99.90
4530;DHT22;2277;51.626;7.516;2022-08-02T03:09:34;18.00;99.90
4530;DHT22;2277;51.626;7.516;2022-08-02T03:12:00;18.00;99.90
4530;DHT22;2277;51.626;7.516;2022-08-02T03:14:26;18.00;99.90
4530;DHT22;2277;51.626;7.516;2022-08-02T03:16:53;17.90;99.90
4530;DHT22;2277;51.626;7.516;2022-08-02T03:19:20;17.90;99.90
4530;DHT22;2277;51.626;7.516;2022-08-02T03:21:48;17.90;99.90
4530;DHT22;2277;51.626;7.516;2022-08-02T03:24:13;17.90;99.90
4530;DHT22;2277;51.626;7.516;2022-08-02T03:26:40;17.90;99.90
4530;DHT22;2277;51.626;7.516;2022-08-02T03:29:06;17.90;99.90
4530;DHT22;2277;51.626;7.516;2022-08-02T03:31:32;17.80;99.90
4530;DHT22;2277;51.626;7.516;2022-08-02T03:33:59;17.80;99.90
4530;DHT22;2277;51.626;7.516;2022-08-02T03:36:29;17.80;99.90
4530;DHT22;2277;51.626;7.516;2022-08-02T03:38:57;17.80;99.90
4530;DHT22;2277;51.626;7.516;2022-08-02T03:41:24;17.70;99.90
4530;DHT22;2277;51.626;7.516;2022-08-02T03:43:50;17.70;99.90
4530;DHT22;2277;51.626;7.516;2022-08-02T03:46:19;17.70;99.90
4530;DHT22;2277;51.626;7.516;2022-08-02T03:48:46;17.70;99.90
4530;DHT22;2277;51.626;7.516;2022-08-02T03:51:13;17.70;99.90
4530;DHT22;2277;51.626;7.516;2022-08-02T03:53:39;17.70;99.90
4530;DHT22;2277;51.626;7.516;2022-08-02T03:56:05;17.70;99.90
4530;DHT22;2277;51.626;7.516;2022-08-02T03:58:31;17.70;99.90
4530;DHT22;2277;51.626;7.516;2022-08-02T04:00:57;17.50;99.90
4530;DHT22;2277;51.626;7.516;2022-08-02T04:03:23;17.50;99.90
4530;DHT22;2277;51.626;7.516;2022-08-02T04:05:49;17.50;99.90
4530;DHT22;2277;51.626;7.516;2022-08-02T04:08:15;17.50;99.90
4530;DHT22;2277;51.626;7.516;2022-08-02T04:10:41;17.50;99.90
4530;DHT22;2277;51.626;7.516;2022-08-02T04:13:27;17.50;99.90
4530;DHT22;2277;51.626;7.516;2022-08-02T04:15:57;17.50;99.90
4530;DHT22;2277;51.626;7.516;2022-08-02T04:18:29;17.40;99.90
4530;DHT22;2277;51.626;7.516;2022-08-02T04:20:58;17.30;99.90
4530;DHT22;2277;51.626;7.516;2022-08-02T04:23:25;17.40;99.90
4530;DHT22;2277;51.626;7.516;2022-08-02T04:25:51;17.40;99.90
4530;DHT22;2277;51.626;7.516;2022-08-02T04:28:18;17.50;99.90
4530;DHT22;2277;51.626;7.516;2022-08-02T04:30:46;17.50;99.90
4530;DHT22;2277;51.626;7.516;2022-08-02T04:33:12;17.50;99.90
4530;DHT22;2277;51.626;7.516;2022-08-02T04:35:38;17.40;99.90
4530;DHT22;2277;51.626;7.516;2022-08-02T04:38:04;17.30;99.90
4530;DHT22;2277;51.626;7.516;2022-08-02T04:40:30;17.30;99.90
4530;DHT22;2277;51.626;7.516;2022-08-02T04:42:56;17.30;99.90
4530;DHT22;2277;51.626;7.516;2022-08-02T04:45:22;17.30;99.90
4530;DHT22;2277;51.626;7.516;2022-08-02T04:47:49;17.30;99.90
4530;DHT22;2277;51.626;7.516;2022-08-02T04:50:14;17.30;99.90
4530;DHT22;2277;51.626;7.516;2022-08-02T04:52:40;17.30;99.90
4530;DHT22;2277;51.626;7.516;2022-08-02T04:55:06;17.30;99.90
4530;DHT22;2277;51.626;7.516;2022-08-02T04:57:32;17.30;99.90
4530;DHT22;2277;51.626;7.516;2022-08-02T05:00:16;17.30;99.90
4530;DHT22;2277;51.626;7.516;2022-08-02T05:02:42;17.30;99.90
4530;DHT22;2277;51.626;7.516;2022-08-02T05:05:07;17.30;99.90
4530;DHT22;2277;51.626;7.516;2022-08-02T05:07:33;17.30;99.90
4530;DHT22;2277;51.626;7.516;2022-08-02T05:09:58;17.30;99.90
4530;DHT22;2277;51.626;7.516;2022-08-02T05:12:24;17.30;99.90
4530;DHT22;2277;51.626;7.516;2022-08-02T05:14:50;17.30;99.90
4530;DHT22;2277;51.626;7.516;2022-08-02T05:17:16;17.40;99.90
4530;DHT22;2277;51.626;7.516;2022-08-02T05:19:41;17.50;99.90
4530;DHT22;2277;51.626;7.516;2022-08-02T05:22:07;17.50;99.90
4530;DHT22;2277;51.626;7.516;2022-08-02T05:24:33;17.60;99.90
4530;DHT22;2277;51.626;7.516;2022-08-02T05:26:58;17.60;99.90
4530;DHT22;2277;51.626;7.516;2022-08-02T05:29:24;17.50;99.90
4530;DHT22;2277;51.626;7.516;2022-08-02T05:31:50;17.50;99.90
4530;DHT22;2277;51.626;7.516;2022-08-02T05:34:15;17.60;99.90
4530;DHT22;2277;51.626;7.516;2022-08-02T05:36:41;17.70;99.90
4530;DHT22;2277;51.626;7.516;2022-08-02T05:39:07;17.70;99.90
4530;DHT22;2277;51.626;7.516;2022-08-02T05:41:34;17.70;99.90
4530;DHT22;2277;51.626;7.516;2022-08-02T05:44:00;17.80;99.90
4530;DHT22;2277;51.626;7.516;2022-08-02T05:46:26;17.90;99.90
4530;DHT22;2277;51.626;7.516;2022-08-02T05:48:51;18.00;99.90
4530;DHT22;2277;51.626;7.516;2022-08-02T05:51:35;18.10;99.90
4530;DHT22;2277;51.626;7.516;2022-08-02T05:54:26;18.10;99.90
4530;DHT22;2277;51.626;7.516;2022-08-02T05:57:04;18.20;99.90
4530;DHT22;2277;51.626;7.516;2022-08-02T06:07:29;18.20;99.90
4530;DHT22;2277;51.626;7.516;2022-08-02T06:09:57;18.30;99.90
4530;DHT22;2277;51.626;7.516;2022-08-02T06:12:25;18.30;99.90
4530;DHT22;2277;51.626;7.516;2022-08-02T06:14:53;18.40;99.90
4530;DHT22;2277;51.626;7.516;2022-08-02T06:17:20;18.50;99.90
4530;DHT22;2277;51.626;7.516;2022-08-02T06:19:47;18.60;99.90
4530;DHT22;2277;51.626;7.516;2022-08-02T06:22:15;18.60;99.90
4530;DHT22;2277;51.626;7.516;2022-08-02T06:24:44;18.60;99.90
4530;DHT22;2277;51.626;7.516;2022-08-02T06:27:13;18.60;99.90
4530;DHT22;2277;51.626;7.516;2022-08-02T06:29:42;18.60;99.90
4530;DHT22;2277;51.626;7.516;2022-08-02T06:32:09;18.60;99.90
4530;DHT22;2277;51.626;7.516;2022-08-02T06:34:44;18.60;99.90
4530;DHT22;2277;51.626;7.516;2022-08-02T06:40:39;18.80;99.90
4530;DHT22;2277;51.626;7.516;2022-08-02T06:43:17;19.00;99.90
4530;DHT22;2277;51.626;7.516;2022-08-02T06:45:46;19.00;99.90
4530;DHT22;2277;51.626;7.516;2022-08-02T06:48:12;19.20;99.90
4530;DHT22;2277;51.626;7.516;2022-08-02T06:50:37;19.30;99.90
4530;DHT22;2277;51.626;7.516;2022-08-02T06:53:04;19.50;99.90
4530;DHT22;2277;51.626;7.516;2022-08-02T06:55:30;19.60;99.90
4530;DHT22;2277;51.626;7.516;2022-08-02T06:57:57;19.60;99.90
4530;DHT22;2277;51.626;7.516;2022-08-02T07:00:23;19.80;99.90
4530;DHT22;2277;51.626;7.516;2022-08-02T07:02:49;19.90;99.90
4530;DHT22;2277;51.626;7.516;2022-08-02T07:05:15;20.00;99.90
4530;DHT22;2277;51.626;7.516;2022-08-02T07:07:41;20.20;99.90
4530;DHT22;2277;51.626;7.516;2022-08-02T07:10:07;20.40;99.90
4530;DHT22;2277;51.626;7.516;2022-08-02T07:12:33;20.60;99.90
4530;DHT22;2277;51.626;7.516;2022-08-02T07:15:00;20.80;99.90
4530;DHT22;2277;51.626;7.516;2022-08-02T07:17:27;21.00;99.90
4530;DHT22;2277;51.626;7.516;2022-08-02T07:19:53;21.20;99.90
4530;DHT22;2277;51.626;7.516;2022-08-02T07:22:19;21.30;99.90
4530;DHT22;2277;51.626;7.516;2022-08-02T07:24:48;21.60;99.90
4530;DHT22;2277;51.626;7.516;2022-08-02T07:27:13;21.80;99.90
4530;DHT22;2277;51.626;7.516;2022-08-02T07:29:39;21.90;99.90
4530;DHT22;2277;51.626;7.516;2022-08-02T07:32:05;22.00;99.90
4530;DHT22;2277;51.626;7.516;2022-08-02T07:34:31;22.10;99.90
4530;DHT22;2277;51.626;7.516;2022-08-02T07:36:56;22.20;99.90
4530;DHT22;2277;51.626;7.516;2022-08-02T07:39:22;22.30;99.90
4530;DHT22;2277;51.626;7.516;2022-08-02T07:41:48;22.50;99.90
4530;DHT22;2277;51.626;7.516;2022-08-02T07:44:19;22.70;99.90
4530;DHT22;2277;51.626;7.516;2022-08-02T07:46:46;23.00;99.90
4530;DHT22;2277;51.626;7.516;2022-08-02T07:49:12;23.10;99.90
4530;DHT22;2277;51.626;7.516;2022-08-02T07:51:44;23.20;99.90
4530;DHT22;2277;51.626;7.516;2022-08-02T07:54:09;23.30;99.90
4530;DHT22;2277;51.626;7.516;2022-08-02T07:56:35;23.40;99.90
4530;DHT22;2277;51.626;7.516;2022-08-02T07:59:02;23.60;99.90
4530;DHT22;2277;51.626;7.516;2022-08-02T08:01:27;23.80;99.90
4530;DHT22;2277;51.626;7.516;2022-08-02T08:03:53;23.90;99.90
4530;DHT22;2277;51.626;7.516;2022-08-02T08:06:19;24.00;99.90
4530;DHT22;2277;51.626;7.516;2022-08-02T08:08:44;24.00;99.90
4530;DHT22;2277;51.626;7.516;2022-08-02T08:11:10;24.20;99.90
4530;DHT22;2277;51.626;7.516;2022-08-02T08:13:36;24.10;99.90
4530;DHT22;2277;51.626;7.516;2022-08-02T08:16:01;24.20;99.90
4530;DHT22;2277;51.626;7.516;2022-08-02T08:18:28;24.40;99.90
4530;DHT22;2277;51.626;7.516;2022-08-02T08:20:54;24.70;99.90
4530;DHT22;2277;51.626;7.516;2022-08-02T08:23:19;24.70;99.90
4530;DHT22;2277;51.626;7.516;2022-08-02T08:25:45;24.80;99.90
4530;DHT22;2277;51.626;7.516;2022-08-02T08:28:10;24.90;99.90
4530;DHT22;2277;51.626;7.516;2022-08-02T08:30:36;25.10;99.90
4530;DHT22;2277;51.626;7.516;2022-08-02T08:33:01;25.30;99.90
4530;DHT22;2277;51.626;7.516;2022-08-02T08:35:28;25.40;99.90
4530;DHT22;2277;51.626;7.516;2022-08-02T08:37:54;25.50;99.90
4530;DHT22;2277;51.626;7.516;2022-08-02T08:40:19;25.40;99.90
4530;DHT22;2277;51.626;7.516;2022-08-02T08:42:46;25.50;99.90
4530;DHT22;2277;51.626;7.516;2022-08-02T08:45:12;25.80;99.90
4530;DHT22;2277;51.626;7.516;2022-08-02T08:47:39;25.90;99.90
4530;DHT22;2277;51.626;7.516;2022-08-02T08:50:10;25.90;99.90
4530;DHT22;2277;51.626;7.516;2022-08-02T08:52:52;26.10;99.90
4530;DHT22;2277;51.626;7.516;2022-08-02T08:55:21;26.30;99.90
4530;DHT22;2277;51.626;7.516;2022-08-02T08:57:47;26.50;99.90
4530;DHT22;2277;51.626;7.516;2022-08-02T09:00:13;26.50;99.90
4530;DHT22;2277;51.626;7.516;2022-08-02T09:02:41;26.70;99.90
4530;DHT22;2277;51.626;7.516;2022-08-02T09:05:12;26.70;99.90
4530;DHT22;2277;51.626;7.516;2022-08-02T09:07:38;26.70;99.90
4530;DHT22;2277;51.626;7.516;2022-08-02T09:15:42;27.50;99.90
4530;DHT22;2277;51.626;7.516;2022-08-02T09:18:09;27.60;99.90
4530;DHT22;2277;51.626;7.516;2022-08-02T09:20:53;27.70;99.90
4530;DHT22;2277;51.626;7.516;2022-08-02T09:23:22;27.80;99.90
4530;DHT22;2277;51.626;7.516;2022-08-02T09:26:01;27.90;99.90
4530;DHT22;2277;51.626;7.516;2022-08-02T09:28:30;27.90;99.90
4530;DHT22;2277;51.626;7.516;2022-08-02T09:31:08;28.00;99.90
4530;DHT22;2277;51.626;7.516;2022-08-02T09:33:34;28.10;99.90
4530;DHT22;2277;51.626;7.516;2022-08-02T09:36:04;28.30;99.90
4530;DHT22;2277;51.626;7.516;2022-08-02T09:38:30;28.40;99.90
4530;DHT22;2277;51.626;7.516;2022-08-02T09:40:57;28.50;99.90
4530;DHT22;2277;51.626;7.516;2022-08-02T09:43:39;28.60;99.90
4530;DHT22;2277;51.626;7.516;2022-08-02T09:48:47;28.70;99.90
4530;DHT22;2277;51.626;7.516;2022-08-02T09:51:20;28.90;99.90
4530;DHT22;2277;51.626;7.516;2022-08-02T09:53:47;29.10;99.90
4530;DHT22;2277;51.626;7.516;2022-08-02T09:56:15;29.20;99.30
4530;DHT22;2277;51.626;7.516;2022-08-02T09:58:41;29.30;98.60
4530;DHT22;2277;51.626;7.516;2022-08-02T10:01:07;29.30;98.70
4530;DHT22;2277;51.626;7.516;2022-08-02T10:03:33;29.40;98.30
4530;DHT22;2277;51.626;7.516;2022-08-02T10:05:58;29.70;97.50
4530;DHT22;2277;51.626;7.516;2022-08-02T10:08:30;30.00;97.10
4530;DHT22;2277;51.626;7.516;2022-08-02T10:10:56;30.30;96.60
4530;DHT22;2277;51.626;7.516;2022-08-02T10:13:34;30.40;95.10
4530;DHT22;2277;51.626;7.516;2022-08-02T10:16:01;30.60;95.50
4530;DHT22;2277;51.626;7.516;2022-08-02T10:18:28;30.90;96.70
4530;DHT22;2277;51.626;7.516;2022-08-02T10:20:55;31.10;94.10
4530;DHT22;2277;51.626;7.516;2022-08-02T10:23:24;31.20;94.70
4530;DHT22;2277;51.626;7.516;2022-08-02T10:25:52;31.20;93.60
4530;DHT22;2277;51.626;7.516;2022-08-02T10:28:19;31.20;94.90
4530;DHT22;2277;51.626;7.516;2022-08-02T10:30:47;31.30;93.50
4530;DHT22;2277;51.626;7.516;2022-08-02T10:33:16;31.40;94.00
4530;DHT22;2277;51.626;7.516;2022-08-02T10:35:44;31.60;92.10
4530;DHT22;2277;51.626;7.516;2022-08-02T10:38:12;31.30;92.30
4530;DHT22;2277;51.626;7.516;2022-08-02T10:43:12;30.80;91.70
4530;DHT22;2277;51.626;7.516;2022-08-02T10:46:23;30.80;92.40
4530;DHT22;2277;51.626;7.516;2022-08-02T10:54:20;31.00;93.20
4530;DHT22;2277;51.626;7.516;2022-08-02T10:56:47;31.30;92.30
4530;DHT22;2277;51.626;7.516;2022-08-02T10:59:23;31.30;90.90
4530;DHT22;2277;51.626;7.516;2022-08-02T11:01:50;30.90;91.50
4530;DHT22;2277;51.626;7.516;2022-08-02T11:04:17;30.80;91.40
4530;DHT22;2277;51.626;7.516;2022-08-02T11:07:36;30.70;91.70
4530;DHT22;2277;51.626;7.516;2022-08-02T11:09:54;30.70;91.70
4530;DHT22;2277;51.626;7.516;2022-08-02T11:12:20;30.70;91.60
4530;DHT22;2277;51.626;7.516;2022-08-02T11:15:00;30.60;91.80
4530;DHT22;2277;51.626;7.516;2022-08-02T11:17:51;30.70;91.70
4530;DHT22;2277;51.626;7.516;2022-08-02T11:20:18;30.80;91.50
4530;DHT22;2277;51.626;7.516;2022-08-02T11:22:46;30.80;91.80
4530;DHT22;2277;51.626;7.516;2022-08-02T11:27:53;30.80;91.90
4530;DHT22;2277;51.626;7.516;2022-08-02T11:30:19;30.80;91.80
4530;DHT22;2277;51.626;7.516;2022-08-02T11:32:46;30.70;91.90
4530;DHT22;2277;51.626;7.516;2022-08-02T11:35:12;30.90;91.90
4530;DHT22;2277;51.626;7.516;2022-08-02T11:37:42;31.00;91.80
4530;DHT22;2277;51.626;7.516;2022-08-02T11:40:17;31.10;90.20
4530;DHT22;2277;51.626;7.516;2022-08-02T11:42:44;31.20;90.40
4530;DHT22;2277;51.626;7.516;2022-08-02T11:45:13;31.20;87.30
4530;DHT22;2277;51.626;7.516;2022-08-02T11:47:45;31.20;90.10
4530;DHT22;2277;51.626;7.516;2022-08-02T11:50:12;31.30;90.00
4530;DHT22;2277;51.626;7.516;2022-08-02T11:52:38;31.50;88.00
4530;DHT22;2277;51.626;7.516;2022-08-02T11:55:05;31.50;86.60
4530;DHT22;2277;51.626;7.516;2022-08-02T11:57:31;31.40;87.10
4530;DHT22;2277;51.626;7.516;2022-08-02T11:59:56;31.30;88.60
4530;DHT22;2277;51.626;7.516;2022-08-02T12:02:28;31.30;88.20
4530;DHT22;2277;51.626;7.516;2022-08-02T12:04:58;31.60;88.30
4530;DHT22;2277;51.626;7.516;2022-08-02T12:07:46;31.70;89.30
4530;DHT22;2277;51.626;7.516;2022-08-02T12:10:14;31.90;90.60
4530;DHT22;2277;51.626;7.516;2022-08-02T12:12:50;31.90;88.20
4530;DHT22;2277;51.626;7.516;2022-08-02T12:15:38;31.90;87.90
4530;DHT22;2277;51.626;7.516;2022-08-02T12:20:57;31.50;88.80
4530;DHT22;2277;51.626;7.516;2022-08-02T12:23:24;31.30;87.10
4530;DHT22;2277;51.626;7.516;2022-08-02T12:26:06;31.30;90.00
4530;DHT22;2277;51.626;7.516;2022-08-02T12:28:35;31.30;89.80
4530;DHT22;2277;51.626;7.516;2022-08-02T12:31:03;31.30;90.50
4530;DHT22;2277;51.626;7.516;2022-08-02T12:33:48;31.50;89.90
4530;DHT22;2277;51.626;7.516;2022-08-02T12:36:18;31.60;90.20
4530;DHT22;2277;51.626;7.516;2022-08-02T12:38:59;31.60;88.50
4530;DHT22;2277;51.626;7.516;2022-08-02T12:41:26;31.60;87.60
4530;DHT22;2277;51.626;7.516;2022-08-02T12:43:53;31.40;86.60
4530;DHT22;2277;51.626;7.516;2022-08-02T12:46:21;31.40;90.30
4530;DHT22;2277;51.626;7.516;2022-08-02T12:48:47;31.50;87.80
4530;DHT22;2277;51.626;7.516;2022-08-02T12:51:23;31.50;88.40
4530;DHT22;2277;51.626;7.516;2022-08-02T12:53:50;31.40;88.00
4530;DHT22;2277;51.626;7.516;2022-08-02T12:56:30;31.20;88.60
4530;DHT22;2277;51.626;7.516;2022-08-02T12:58:57;31.00;90.20
4530;DHT22;2277;51.626;7.516;2022-08-02T13:01:25;31.20;91.60
4530;DHT22;2277;51.626;7.516;2022-08-02T13:03:52;31.30;91.80
4530;DHT22;2277;51.626;7.516;2022-08-02T13:06:19;31.50;91.30
4530;DHT22;2277;51.626;7.516;2022-08-02T13:08:45;31.60;91.20
4530;DHT22;2277;51.626;7.516;2022-08-02T13:11:10;31.70;88.70
4530;DHT22;2277;51.626;7.516;2022-08-02T13:13:36;31.60;90.00
4530;DHT22;2277;51.626;7.516;2022-08-02T13:16:02;31.30;90.30
4530;DHT22;2277;51.626;7.516;2022-08-02T13:18:28;31.50;89.30
4530;DHT22;2277;51.626;7.516;2022-08-02T13:20:53;31.50;88.80
4530;DHT22;2277;51.626;7.516;2022-08-02T13:23:19;31.40;89.50
4530;DHT22;2277;51.626;7.516;2022-08-02T13:25:45;31.40;90.70
4530;DHT22;2277;51.626;7.516;2022-08-02T13:28:11;31.60;89.90
4530;DHT22;2277;51.626;7.516;2022-08-02T13:30:37;31.80;84.90
4530;DHT22;2277;51.626;7.516;2022-08-02T13:33:03;31.70;86.00
4530;DHT22;2277;51.626;7.516;2022-08-02T13:35:28;31.80;86.70
4530;DHT22;2277;51.626;7.516;2022-08-02T13:37:54;32.00;85.60
4530;DHT22;2277;51.626;7.516;2022-08-02T13:40:19;32.30;86.10
4530;DHT22;2277;51.626;7.516;2022-08-02T13:42:46;32.50;84.00
4530;DHT22;2277;51.626;7.516;2022-08-02T13:45:11;32.60;83.20
4530;DHT22;2277;51.626;7.516;2022-08-02T13:47:38;32.70;83.00
4530;DHT22;2277;51.626;7.516;2022-08-02T13:50:05;32.80;82.80
4530;DHT22;2277;51.626;7.516;2022-08-02T13:52:31;32.60;80.20
4530;DHT22;2277;51.626;7.516;2022-08-02T13:54:56;32.70;82.00
4530;DHT22;2277;51.626;7.516;2022-08-02T13:57:22;32.70;80.70
4530;DHT22;2277;51.626;7.516;2022-08-02T13:59:48;32.70;80.00
4530;DHT22;2277;51.626;7.516;2022-08-02T14:02:14;32.80;81.00
4530;DHT22;2277;51.626;7.516;2022-08-02T14:04:39;32.70;78.20
4530;DHT22;2277;51.626;7.516;2022-08-02T14:07:05;32.60;78.40
4530;DHT22;2277;51.626;7.516;2022-08-02T14:09:31;32.40;80.00
4530;DHT22;2277;51.626;7.516;2022-08-02T14:11:58;32.40;79.70
4530;DHT22;2277;51.626;7.516;2022-08-02T14:14:24;32.50;79.70
4530;DHT22;2277;51.626;7.516;2022-08-02T14:16:51;32.60;80.60
4530;DHT22;2277;51.626;7.516;2022-08-02T14:19:16;32.70;76.50
4530;DHT22;2277;51.626;7.516;2022-08-02T14:21:43;32.80;78.20
4530;DHT22;2277;51.626;7.516;2022-08-02T14:24:09;32.90;78.40
4530;DHT22;2277;51.626;7.516;2022-08-02T14:26:34;33.20;76.90
4530;DHT22;2277;51.626;7.516;2022-08-02T14:29:00;33.30;76.50
4530;DHT22;2277;51.626;7.516;2022-08-02T14:31:26;33.40;73.80
4530;DHT22;2277;51.626;7.516;2022-08-02T14:33:52;33.40;72.30
4530;DHT22;2277;51.626;7.516;2022-08-02T14:36:17;33.50;73.80
4530;DHT22;2277;51.626;7.516;2022-08-02T14:38:43;33.50;75.70
4530;DHT22;2277;51.626;7.516;2022-08-02T14:41:09;33.50;74.90
4530;DHT22;2277;51.626;7.516;2022-08-02T14:43:34;33.50;75.80
4530;DHT22;2277;51.626;7.516;2022-08-02T14:46:18;33.70;75.30
4530;DHT22;2277;51.626;7.516;2022-08-02T14:48:44;33.80;71.00
4530;DHT22;2277;51.626;7.516;2022-08-02T14:51:09;33.80;68.90
4530;DHT22;2277;51.626;7.516;2022-08-02T14:53:38;33.70;72.30
4530;DHT22;2277;51.626;7.516;2022-08-02T14:56:03;33.70;71.20
4530;DHT22;2277;51.626;7.516;2022-08-02T14:58:29;33.60;69.40
4530;DHT22;2277;51.626;7.516;2022-08-02T15:00:55;33.70;70.90
4530;DHT22;2277;51.626;7.516;2022-08-02T15:03:20;33.70;72.00
4530;DHT22;2277;51.626;7.516;2022-08-02T15:05:46;33.70;69.40
4530;DHT22;2277;51.626;7.516;2022-08-02T15:08:11;33.60;69.30
4530;DHT22;2277;51.626;7.516;2022-08-02T15:10:37;33.30;69.90
4530;DHT22;2277;51.626;7.516;2022-08-02T15:13:03;33.30;69.50
4530;DHT22;2277;51.626;7.516;2022-08-02T15:15:28;33.30;69.50
4530;DHT22;2277;51.626;7.516;2022-08-02T15:17:54;33.30;69.60
4530;DHT22;2277;51.626;7.516;2022-08-02T15:20:20;33.30;69.40
4530;DHT22;2277;51.626;7.516;2022-08-02T15:22:45;33.40;71.20
4530;DHT22;2277;51.626;7.516;2022-08-02T15:25:11;33.50;68.40
4530;DHT22;2277;51.626;7.516;2022-08-02T15:27:36;33.60;67.40
4530;DHT22;2277;51.626;7.516;2022-08-02T15:30:02;33.50;70.30
4530;DHT22;2277;51.626;7.516;2022-08-02T15:32:28;33.50;69.30
4530;DHT22;2277;51.626;7.516;2022-08-02T15:34:54;33.50;69.30
4530;DHT22;2277;51.626;7.516;2022-08-02T15:37:19;33.40;68.60
4530;DHT22;2277;51.626;7.516;2022-08-02T15:39:45;33.40;67.60
4530;DHT22;2277;51.626;7.516;2022-08-02T15:42:10;33.20;68.00
4530;DHT22;2277;51.626;7.516;2022-08-02T15:44:36;33.20;69.20
4530;DHT22;2277;51.626;7.516;2022-08-02T15:47:05;33.00;69.10
4530;DHT22;2277;51.626;7.516;2022-08-02T15:49:30;32.90;69.70
4530;DHT22;2277;51.626;7.516;2022-08-02T15:51:56;32.90;72.70
4530;DHT22;2277;51.626;7.516;2022-08-02T15:54:22;33.00;72.70
4530;DHT22;2277;51.626;7.516;2022-08-02T15:56:48;33.10;69.80
4530;DHT22;2277;51.626;7.516;2022-08-02T15:59:13;33.10;69.50
4530;DHT22;2277;51.626;7.516;2022-08-02T16:01:39;33.10;70.20
4530;DHT22;2277;51.626;7.516;2022-08-02T16:04:06;33.10;71.60
4530;DHT22;2277;51.626;7.516;2022-08-02T16:06:32;33.20;69.20
4530;DHT22;2277;51.626;7.516;2022-08-02T16:08:58;33.30;69.30
4530;DHT22;2277;51.626;7.516;2022-08-02T16:11:24;33.10;69.30
4530;DHT22;2277;51.626;7.516;2022-08-02T16:13:49;33.00;69.60
4530;DHT22;2277;51.626;7.516;2022-08-02T16:16:15;33.00;69.80
4530;DHT22;2277;51.626;7.516;2022-08-02T16:18:41;32.80;69.20
4530;DHT22;2277;51.626;7.516;2022-08-02T16:21:07;32.70;70.10
4530;DHT22;2277;51.626;7.516;2022-08-02T16:23:33;32.60;70.60
4530;DHT22;2277;51.626;7.516;2022-08-02T16:25:58;32.70;71.70
4530;DHT22;2277;51.626;7.516;2022-08-02T16:28:24;32.60;73.30
4530;DHT22;2277;51.626;7.516;2022-08-02T16:30:50;32.70;71.30
4530;DHT22;2277;51.626;7.516;2022-08-02T16:33:15;32.70;70.60
4530;DHT22;2277;51.626;7.516;2022-08-02T16:35:41;32.60;71.60
4530;DHT22;2277;51.626;7.516;2022-08-02T16:38:06;32.60;71.90
4530;DHT22;2277;51.626;7.516;2022-08-02T16:40:32;32.60;71.20
4530;DHT22;2277;51.626;7.516;2022-08-02T16:43:02;32.50;70.80
4530;DHT22;2277;51.626;7.516;2022-08-02T16:45:28;32.30;71.00
4530;DHT22;2277;51.626;7.516;2022-08-02T16:47:54;32.20;72.50
4530;DHT22;2277;51.626;7.516;2022-08-02T16:50:20;31.90;71.40